Time;durP1;ratioP1;P1;durP2;ratioP2;P2;SDS_P1;SDS_P2;PMS_P1;PMS_P2;Temp;Humidity;BMP_temperature;BMP_pressure;BME280_temperature;BME280_humidity;BME280_pressure;Samples;Min_cycle;Max_cycle;Signal;HPM_P1;HPM_P2
2023/08/16 00:02:07;;;;;;;10.93;7.85;;;;;;;;;;4999564;28;20029;-70
2023/08/16 00:04:35;;;;;;;12.80;7.78;;;;;;;;;;4999624;28;20067;-69
2023/08/16 00:07:00;;;;;;;13.00;7.80;;;;;;;;;;4999994;28;20045;-70
2023/08/16 00:09:25;;;;;;;12.32;7.45;;;;;;;;;;4987489;28;20033;-70
2023/08/16 00:11:53;;;;;;;12.35;7.38;;;;;;;;;;4998157;28;20060;-70
2023/08/16 00:14:18;;;;;;;7.72;6.32;;;;;;;;;;4999570;28;20126;-68
2023/08/16 00:16:44;;;;;;;9.77;6.70;;;;;;;;;;5001146;28;20052;-69
2023/08/16 00:19:09;;;;;;;12.63;6.75;;;;;;;;;;5002806;28;20033;-69
2023/08/16 00:21:35;;;;;;;11.07;7.25;;;;;;;;;;4998069;28;20104;-69
2023/08/16 00:24:04;;;;;;;10.30;7.20;;;;;;;;;;4996684;28;20034;-69
2023/08/16 00:26:30;;;;;;;16.58;7.97;;;;;;;;;;5014891;28;20045;-69
2023/08/16 00:28:55;;;;;;;9.70;6.70;;;;;;;;;;5018220;28;20044;-69
2023/08/16 00:31:23;;;;;;;8.75;6.32;;;;;;;;;;5016822;28;20034;-69
2023/08/16 00:33:48;;;;;;;10.40;6.90;;;;;;;;;;5016718;28;20551;-69
2023/08/16 00:36:14;;;;;;;10.02;6.07;;;;;;;;;;5017924;28;20034;-69
2023/08/16 00:38:42;;;;;;;9.88;6.15;;;;;;;;;;5015236;28;20050;-68
2023/08/16 00:41:14;;;;;;;10.20;6.43;;;;;;;;;;5002846;28;20040;-69
2023/08/16 00:43:39;;;;;;;12.57;6.40;;;;;;;;;;4995448;28;20033;-69
2023/08/16 00:46:10;;;;;;;10.32;5.75;;;;;;;;;;4995825;28;20033;-70
2023/08/16 00:48:36;;;;;;;9.85;6.05;;;;;;;;;;5025630;28;20087;-70
2023/08/16 00:51:02;;;;;;;8.30;6.20;;;;;;;;;;4996142;28;20038;-69
2023/08/16 00:53:29;;;;;;;7.68;5.75;;;;;;;;;;4994431;28;20129;-69
2023/08/16 00:55:57;;;;;;;8.77;6.00;;;;;;;;;;5009274;28;20038;-69
2023/08/16 00:58:22;;;;;;;10.57;6.25;;;;;;;;;;4996100;28;20046;-70
2023/08/16 01:00:50;;;;;;;9.60;6.55;;;;;;;;;;5019818;28;20067;-70
2023/08/16 01:03:15;;;;;;;10.90;6.55;;;;;;;;;;5016459;28;20517;-69
2023/08/16 01:05:41;;;;;;;8.95;5.75;;;;;;;;;;5016730;28;20037;-69
2023/08/16 01:08:06;;;;;;;8.40;6.20;;;;;;;;;;5015667;28;20057;-70
2023/08/16 01:10:46;;;;;;;8.82;5.35;;;;;;;;;;5048341;28;20033;-69
2023/08/16 01:13:15;;;;;;;8.43;6.18;;;;;;;;;;5014075;28;20040;-69
2023/08/16 01:15:44;;;;;;;11.43;6.35;;;;;;;;;;5015604;28;20860;-70
2023/08/16 01:18:09;;;;;;;9.98;6.50;;;;;;;;;;5015037;28;20124;-70
2023/08/16 01:20:35;;;;;;;8.65;5.95;;;;;;;;;;5014548;28;20043;-69
2023/08/16 01:23:05;;;;;;;9.77;6.13;;;;;;;;;;5018427;28;20101;-69
2023/08/16 01:25:34;;;;;;;10.50;6.80;;;;;;;;;;5019406;28;20061;-69
2023/08/16 01:28:00;;;;;;;9.32;6.18;;;;;;;;;;5020368;28;20048;-70
2023/08/16 01:30:27;;;;;;;8.50;6.28;;;;;;;;;;5022922;28;20043;-69
2023/08/16 01:32:52;;;;;;;8.60;6.63;;;;;;;;;;5019378;28;20088;-69
2023/08/16 01:35:17;;;;;;;9.63;6.38;;;;;;;;;;5050698;28;20118;-69
2023/08/16 01:37:43;;;;;;;8.82;6.60;;;;;;;;;;5049030;28;20129;-69
2023/08/16 01:40:09;;;;;;;9.82;6.78;;;;;;;;;;5032668;28;20044;-70
2023/08/16 01:42:36;;;;;;;8.10;6.82;;;;;;;;;;5018961;28;20040;-70
2023/08/16 01:45:02;;;;;;;9.25;6.10;;;;;;;;;;5018077;28;20036;-69
2023/08/16 01:47:28;;;;;;;10.75;6.75;;;;;;;;;;5021160;28;20041;-70
2023/08/16 01:49:57;;;;;;;9.93;7.28;;;;;;;;;;5021526;28;20068;-70
2023/08/16 01:52:25;;;;;;;12.47;7.10;;;;;;;;;;5020047;28;20864;-70
2023/08/16 01:54:50;;;;;;;9.95;6.72;;;;;;;;;;5021127;28;20037;-69
2023/08/16 01:57:15;;;;;;;7.38;6.15;;;;;;;;;;5023350;28;20641;-69
2023/08/16 01:59:41;;;;;;;10.68;6.97;;;;;;;;;;5019245;28;20056;-69
2023/08/16 02:02:06;;;;;;;13.68;8.63;;;;;;;;;;5017580;28;20038;-69
2023/08/16 02:04:31;;;;;;;12.40;8.88;;;;;;;;;;5004545;28;20041;-68
2023/08/16 02:06:56;;;;;;;14.55;8.77;;;;;;;;;;5020305;28;20041;-69
2023/08/16 02:09:22;;;;;;;13.77;9.15;;;;;;;;;;5051542;28;20086;-68
2023/08/16 02:11:47;;;;;;;11.20;8.80;;;;;;;;;;5021179;28;20506;-69
2023/08/16 02:14:12;;;;;;;12.93;8.50;;;;;;;;;;5046945;28;20042;-68
2023/08/16 02:16:38;;;;;;;12.25;8.80;;;;;;;;;;5017885;28;20116;-68
2023/08/16 02:19:03;;;;;;;14.60;8.65;;;;;;;;;;5018560;28;20033;-68
2023/08/16 02:21:28;;;;;;;14.13;8.52;;;;;;;;;;5020311;28;20037;-69
2023/08/16 02:23:54;;;;;;;14.15;8.68;;;;;;;;;;5017554;28;20040;-68
2023/08/16 02:26:19;;;;;;;12.98;8.73;;;;;;;;;;5021901;28;20048;-69
2023/08/16 02:28:44;;;;;;;13.73;9.70;;;;;;;;;;5018916;28;20099;-69
2023/08/16 02:31:10;;;;;;;13.05;9.23;;;;;;;;;;5014004;28;20075;-69
2023/08/16 02:33:42;;;;;;;15.60;9.88;;;;;;;;;;5016875;28;21413;-69
2023/08/16 02:36:07;;;;;;;16.63;10.60;;;;;;;;;;5019154;28;20068;-69
2023/08/16 02:38:33;;;;;;;18.45;10.07;;;;;;;;;;5007584;28;20341;-69
2023/08/16 02:40:58;;;;;;;15.27;10.93;;;;;;;;;;5019754;28;20045;-68
2023/08/16 02:43:23;;;;;;;13.73;10.35;;;;;;;;;;5024293;28;20455;-69
2023/08/16 02:45:49;;;;;;;15.63;10.30;;;;;;;;;;5020117;28;20033;-69
2023/08/16 02:48:14;;;;;;;15.32;10.05;;;;;;;;;;5023224;28;20090;-69
2023/08/16 02:50:41;;;;;;;16.00;10.18;;;;;;;;;;5018510;28;20260;-68
2023/08/16 02:53:07;;;;;;;18.40;11.50;;;;;;;;;;5019891;28;20146;-68
2023/08/16 02:55:35;;;;;;;15.60;10.10;;;;;;;;;;5019595;28;20497;-68
2023/08/16 02:58:00;;;;;;;13.25;9.52;;;;;;;;;;5021893;28;20078;-68
2023/08/16 03:00:25;;;;;;;12.98;10.32;;;;;;;;;;5021642;28;20029;-70
2023/08/16 03:02:50;;;;;;;15.65;9.80;;;;;;;;;;5018562;28;20071;-68
2023/08/16 03:05:16;;;;;;;18.15;11.02;;;;;;;;;;5017318;28;20037;-69
2023/08/16 03:07:41;;;;;;;14.55;10.00;;;;;;;;;;5017449;28;20091;-68
2023/08/16 03:10:07;;;;;;;15.57;10.27;;;;;;;;;;5006054;28;20710;-68
2023/08/16 03:12:32;;;;;;;16.45;10.32;;;;;;;;;;5018560;28;20033;-69
2023/08/16 03:14:57;;;;;;;16.25;10.93;;;;;;;;;;5049162;28;20033;-68
2023/08/16 03:17:27;;;;;;;15.13;10.02;;;;;;;;;;5016793;28;20115;-68
2023/08/16 03:19:52;;;;;;;15.15;10.15;;;;;;;;;;5017775;28;20041;-69
2023/08/16 03:22:17;;;;;;;16.00;10.23;;;;;;;;;;5017332;28;20032;-69
2023/08/16 03:24:43;;;;;;;14.88;10.25;;;;;;;;;;5018557;28;20029;-68
2023/08/16 03:27:13;;;;;;;15.13;11.35;;;;;;;;;;5017546;28;20040;-68
2023/08/16 03:29:41;;;;;;;18.17;12.27;;;;;;;;;;5019380;28;20039;-68
2023/08/16 03:32:06;;;;;;;23.73;15.57;;;;;;;;;;5019081;28;20314;-68
2023/08/16 03:34:31;;;;;;;30.38;19.02;;;;;;;;;;5018354;28;20028;-69
2023/08/16 03:36:57;;;;;;;31.38;20.85;;;;;;;;;;5020473;28;20127;-68
2023/08/16 03:39:25;;;;;;;31.85;19.83;;;;;;;;;;5018134;28;20596;-68
2023/08/16 03:41:50;;;;;;;32.53;20.45;;;;;;;;;;5017688;28;20086;-68
2023/08/16 03:44:17;;;;;;;27.33;18.33;;;;;;;;;;5017245;28;20046;-69
2023/08/16 03:46:43;;;;;;;27.05;18.35;;;;;;;;;;5049031;28;21060;-68
2023/08/16 03:49:08;;;;;;;26.63;18.50;;;;;;;;;;5022743;28;20032;-68
2023/08/16 03:51:33;;;;;;;29.48;19.05;;;;;;;;;;5016832;28;20041;-68
2023/08/16 03:53:58;;;;;;;30.52;20.63;;;;;;;;;;5013445;28;20033;-69
2023/08/16 03:56:24;;;;;;;25.63;17.63;;;;;;;;;;5000070;28;20126;-69
2023/08/16 03:58:51;;;;;;;26.85;18.10;;;;;;;;;;5019307;28;20872;-69
2023/08/16 04:01:16;;;;;;;24.35;17.83;;;;;;;;;;5018085;28;20033;-69
2023/08/16 04:03:43;;;;;;;27.17;18.33;;;;;;;;;;5016546;28;20881;-69
2023/08/16 04:06:11;;;;;;;23.27;18.50;;;;;;;;;;5016005;28;20167;-68
2023/08/16 04:08:37;;;;;;;28.17;18.30;;;;;;;;;;5017484;28;20033;-69
2023/08/16 04:11:02;;;;;;;28.65;19.80;;;;;;;;;;5017936;28;20086;-69
2023/08/16 04:13:30;;;;;;;26.58;18.13;;;;;;;;;;5021527;28;20040;-69
2023/08/16 04:15:55;;;;;;;23.90;17.40;;;;;;;;;;5043972;28;20096;-69
2023/08/16 04:18:21;;;;;;;24.75;17.15;;;;;;;;;;5016097;28;20045;-69
2023/08/16 04:20:46;;;;;;;30.02;18.33;;;;;;;;;;5006740;28;20740;-69
2023/08/16 04:23:11;;;;;;;22.40;15.43;;;;;;;;;;5017847;28;20040;-68
2023/08/16 04:25:39;;;;;;;24.25;16.45;;;;;;;;;;5016595;28;20032;-69
2023/08/16 04:28:06;;;;;;;23.55;15.82;;;;;;;;;;5017507;28;20055;-68
2023/08/16 04:30:32;;;;;;;23.45;15.35;;;;;;;;;;5020307;28;20048;-68
2023/08/16 04:32:57;;;;;;;23.65;15.75;;;;;;;;;;5019593;28;20964;-69
2023/08/16 04:35:23;;;;;;;25.50;16.30;;;;;;;;;;5015232;28;20086;-69
2023/08/16 04:37:51;;;;;;;21.23;15.15;;;;;;;;;;5021187;28;20052;-69
2023/08/16 04:40:18;;;;;;;24.88;15.50;;;;;;;;;;5033417;28;20032;-70
2023/08/16 04:42:44;;;;;;;23.35;14.63;;;;;;;;;;5018333;28;20555;-69
2023/08/16 04:45:09;;;;;;;21.60;13.88;;;;;;;;;;5046750;28;20056;-69
2023/08/16 04:47:35;;;;;;;20.90;14.45;;;;;;;;;;5015269;28;20501;-69
2023/08/16 04:50:03;;;;;;;19.90;13.00;;;;;;;;;;5001929;28;20037;-68
2023/08/16 04:52:28;;;;;;;28.30;13.00;;;;;;;;;;5021720;28;20869;-69
2023/08/16 04:54:54;;;;;;;21.60;12.98;;;;;;;;;;5015714;28;20068;-69
2023/08/16 04:57:21;;;;;;;19.63;12.98;;;;;;;;;;5048413;28;20048;-69
2023/08/16 04:59:47;;;;;;;18.98;12.48;;;;;;;;;;5022032;28;20034;-68
2023/08/16 05:02:12;;;;;;;17.13;12.13;;;;;;;;;;5023751;28;20075;-68
2023/08/16 05:04:37;;;;;;;20.88;14.10;;;;;;;;;;5020295;28;20535;-69
2023/08/16 05:07:03;;;;;;;19.10;13.00;;;;;;;;;;5019007;28;20033;-69
2023/08/16 05:09:28;;;;;;;15.85;11.98;;;;;;;;;;5021810;28;20170;-73
2023/08/16 05:11:53;;;;;;;16.90;10.60;;;;;;;;;;5024038;28;20048;-73
2023/08/16 05:14:19;;;;;;;16.52;11.35;;;;;;;;;;5021613;28;20037;-74
2023/08/16 05:16:47;;;;;;;16.35;11.23;;;;;;;;;;5027514;28;20126;-75
2023/08/16 05:19:13;;;;;;;14.48;11.10;;;;;;;;;;5019534;28;20030;-73
2023/08/16 05:21:40;;;;;;;14.27;9.38;;;;;;;;;;5026829;28;20108;-73
2023/08/16 05:24:06;;;;;;;13.90;9.27;;;;;;;;;;5053025;28;20040;-73
2023/08/16 05:26:34;;;;;;;13.73;9.43;;;;;;;;;;5020986;28;20063;-73
2023/08/16 05:28:59;;;;;;;19.30;13.18;;;;;;;;;;5018595;28;20063;-73
2023/08/16 05:31:25;;;;;;;16.92;11.60;;;;;;;;;;5011084;28;20103;-73
2023/08/16 05:33:51;;;;;;;17.50;11.32;;;;;;;;;;5019547;28;21003;-73
2023/08/16 05:36:16;;;;;;;16.15;11.27;;;;;;;;;;5021244;28;20038;-70
2023/08/16 05:38:41;;;;;;;12.73;9.80;;;;;;;;;;5020698;28;20517;-73
2023/08/16 05:41:09;;;;;;;17.55;11.25;;;;;;;;;;5053121;28;20040;-74
2023/08/16 05:43:34;;;;;;;18.58;12.32;;;;;;;;;;5024166;28;20128;-73
2023/08/16 05:46:00;;;;;;;16.73;12.00;;;;;;;;;;5021075;28;20836;-73
2023/08/16 05:48:25;;;;;;;21.30;12.65;;;;;;;;;;5019938;28;20033;-72
2023/08/16 05:50:50;;;;;;;18.85;14.93;;;;;;;;;;5019643;28;20098;-73
2023/08/16 05:53:16;;;;;;;17.88;13.35;;;;;;;;;;5018545;28;20116;-72
2023/08/16 05:55:41;;;;;;;17.73;12.70;;;;;;;;;;5015347;28;20029;-73
2023/08/16 05:58:07;;;;;;;20.45;12.77;;;;;;;;;;5019097;28;22318;-72
2023/08/16 06:00:32;;;;;;;15.77;11.30;;;;;;;;;;5034334;28;20042;-73
2023/08/16 06:03:00;;;;;;;16.05;11.57;;;;;;;;;;5018010;28;20044;-73
2023/08/16 06:05:25;;;;;;;16.52;11.02;;;;;;;;;;5018182;28;20045;-73
2023/08/16 06:07:54;;;;;;;14.70;9.95;;;;;;;;;;5020767;28;20063;-73
2023/08/16 06:10:19;;;;;;;13.27;8.93;;;;;;;;;;5019579;28;20033;-73
2023/08/16 06:12:44;;;;;;;15.70;10.73;;;;;;;;;;5014944;28;20040;-73
2023/08/16 06:15:13;;;;;;;17.33;11.23;;;;;;;;;;5013658;28;20132;-74
2023/08/16 06:17:38;;;;;;;15.38;9.65;;;;;;;;;;5017148;28;20041;-73
2023/08/16 06:20:05;;;;;;;14.60;9.60;;;;;;;;;;5016187;28;20041;-73
2023/08/16 06:22:33;;;;;;;12.57;7.88;;;;;;;;;;5017350;28;20115;-74
2023/08/16 06:24:58;;;;;;;9.13;7.22;;;;;;;;;;5018679;28;20061;-72
2023/08/16 06:27:23;;;;;;;11.13;6.50;;;;;;;;;;5020081;28;20129;-73
2023/08/16 06:29:49;;;;;;;10.98;5.03;;;;;;;;;;5020090;28;20041;-69
2023/08/16 06:32:16;;;;;;;8.00;4.50;;;;;;;;;;5017363;28;20052;-69
2023/08/16 06:34:41;;;;;;;6.00;2.90;;;;;;;;;;5016331;28;20057;-68
2023/08/16 06:37:07;;;;;;;7.18;2.42;;;;;;;;;;5015417;28;20959;-69
2023/08/16 06:39:33;;;;;;;7.07;2.70;;;;;;;;;;5014064;28;20037;-70
2023/08/16 06:42:01;;;;;;;4.95;2.08;;;;;;;;;;5037196;28;20118;-70
2023/08/16 06:44:26;;;;;;;5.93;2.08;;;;;;;;;;5037775;28;20037;-70
2023/08/16 06:46:51;;;;;;;6.00;2.20;;;;;;;;;;5017836;28;20644;-70
2023/08/16 06:49:17;;;;;;;3.60;1.85;;;;;;;;;;5016773;28;20120;-70
2023/08/16 06:51:42;;;;;;;5.97;2.25;;;;;;;;;;5016168;28;20045;-69
2023/08/16 06:54:10;;;;;;;8.13;2.13;;;;;;;;;;5005633;28;20033;-70
2023/08/16 06:56:35;;;;;;;3.65;1.63;;;;;;;;;;5020917;28;20036;-69
2023/08/16 06:59:00;;;;;;;4.47;1.52;;;;;;;;;;5022091;28;20025;-70
2023/08/16 07:01:26;;;;;;;4.03;1.60;;;;;;;;;;5020481;28;20044;-70
2023/08/16 07:03:51;;;;;;;4.50;1.70;;;;;;;;;;5018338;28;20137;-70
2023/08/16 07:06:17;;;;;;;4.15;1.70;;;;;;;;;;5021154;28;20137;-70
2023/08/16 07:08:45;;;;;;;4.22;1.75;;;;;;;;;;5021455;28;20516;-69
2023/08/16 07:11:10;;;;;;;4.03;1.75;;;;;;;;;;5016622;28;20033;-74
2023/08/16 07:13:35;;;;;;;3.53;1.45;;;;;;;;;;5024800;28;20056;-75
2023/08/16 07:16:00;;;;;;;4.78;1.70;;;;;;;;;;5061314;28;20029;-74
2023/08/16 07:18:26;;;;;;;6.57;1.63;;;;;;;;;;5025097;28;20045;-74
2023/08/16 07:20:51;;;;;;;4.43;1.90;;;;;;;;;;5024385;28;22393;-74
2023/08/16 07:23:16;;;;;;;3.83;1.50;;;;;;;;;;5026850;28;20123;-73
2023/08/16 07:25:42;;;;;;;4.68;1.65;;;;;;;;;;5026493;28;20113;-72
2023/08/16 07:28:09;;;;;;;4.18;1.70;;;;;;;;;;5025019;28;20090;-71
2023/08/16 07:30:35;;;;;;;14.93;2.20;;;;;;;;;;5020823;28;20045;-73
2023/08/16 07:33:01;;;;;;;3.67;1.42;;;;;;;;;;5020120;28;20689;-73
2023/08/16 07:35:28;;;;;;;5.63;1.63;;;;;;;;;;5012180;28;20118;-73
2023/08/16 07:37:54;;;;;;;3.28;1.33;;;;;;;;;;5017337;28;20484;-73
2023/08/16 07:40:22;;;;;;;4.95;1.40;;;;;;;;;;5025948;28;20029;-72
2023/08/16 07:42:47;;;;;;;4.65;1.63;;;;;;;;;;5029029;28;20046;-76
2023/08/16 07:45:12;;;;;;;3.67;1.30;;;;;;;;;;5031933;28;20067;-75
2023/08/16 07:47:37;;;;;;;3.55;1.25;;;;;;;;;;5023603;28;20119;-75
2023/08/16 07:50:03;;;;;;;2.13;1.15;;;;;;;;;;5036086;28;20149;-74
2023/08/16 07:52:28;;;;;;;6.78;1.60;;;;;;;;;;5022470;28;20040;-73
2023/08/16 07:54:55;;;;;;;5.10;1.50;;;;;;;;;;5021094;28;20162;-73
2023/08/16 07:57:22;;;;;;;4.60;1.40;;;;;;;;;;5018222;28;20060;-75
2023/08/16 07:59:48;;;;;;;2.65;1.35;;;;;;;;;;5046429;28;20467;-74
2023/08/16 08:02:13;;;;;;;3.47;1.48;;;;;;;;;;5014816;28;20029;-73
2023/08/16 08:04:38;;;;;;;4.85;1.52;;;;;;;;;;5016977;28;20084;-75
2023/08/16 08:07:04;;;;;;;4.70;1.73;;;;;;;;;;5018049;28;20635;-74
2023/08/16 08:09:31;;;;;;;6.55;1.77;;;;;;;;;;5020983;28;20727;-75
2023/08/16 08:11:56;;;;;;;5.63;1.45;;;;;;;;;;5054774;28;20486;-75
2023/08/16 08:14:21;;;;;;;4.78;1.40;;;;;;;;;;5019836;28;20059;-74
2023/08/16 08:16:47;;;;;;;4.32;1.55;;;;;;;;;;5016738;28;20059;-75
2023/08/16 08:19:12;;;;;;;4.82;1.40;;;;;;;;;;5022164;28;20079;-73
2023/08/16 08:21:37;;;;;;;3.22;1.58;;;;;;;;;;5019800;28;20030;-74
2023/08/16 08:24:03;;;;;;;4.07;1.30;;;;;;;;;;5017681;28;20033;-70
2023/08/16 08:26:31;;;;;;;3.53;1.23;;;;;;;;;;5047343;28;20041;-74
2023/08/16 08:28:56;;;;;;;3.58;1.52;;;;;;;;;;5016538;28;20401;-75
2023/08/16 08:31:23;;;;;;;3.22;1.42;;;;;;;;;;5014139;28;20037;-74
2023/08/16 08:33:48;;;;;;;4.60;1.25;;;;;;;;;;5014798;28;20029;-74
2023/08/16 08:36:13;;;;;;;3.60;1.38;;;;;;;;;;5015090;28;20115;-74
2023/08/16 08:38:41;;;;;;;3.92;1.33;;;;;;;;;;5016639;28;20068;-73
2023/08/16 08:41:06;;;;;;;7.28;1.80;;;;;;;;;;5047563;28;20677;-75
2023/08/16 08:43:35;;;;;;;2.80;1.52;;;;;;;;;;5010288;28;20044;-74
2023/08/16 08:46:05;;;;;;;4.65;1.85;;;;;;;;;;5012688;28;20246;-73
2023/08/16 08:48:30;;;;;;;4.32;1.60;;;;;;;;;;5011167;28;20615;-72
2023/08/16 08:51:00;;;;;;;5.30;1.95;;;;;;;;;;4989501;28;20041;-71
2023/08/16 08:53:26;;;;;;;4.00;1.60;;;;;;;;;;5042138;28;20099;-72
2023/08/16 08:55:52;;;;;;;3.33;1.60;;;;;;;;;;5014831;28;20033;-72
2023/08/16 08:58:18;;;;;;;4.90;1.80;;;;;;;;;;4996638;28;20040;-73
2023/08/16 09:00:46;;;;;;;2.90;1.30;;;;;;;;;;5016024;28;20086;-75
2023/08/16 09:03:14;;;;;;;3.00;1.20;;;;;;;;;;5014686;28;20033;-72
2023/08/16 09:05:40;;;;;;;4.10;1.50;;;;;;;;;;5014661;28;20072;-72
2023/08/16 09:08:06;;;;;;;5.72;1.80;;;;;;;;;;5010407;28;20047;-74
2023/08/16 09:10:39;;;;;;;4.15;1.52;;;;;;;;;;5031026;28;20318;-73
2023/08/16 09:13:06;;;;;;;4.95;1.90;;;;;;;;;;5011683;28;20140;-71
2023/08/16 09:15:31;;;;;;;6.10;1.90;;;;;;;;;;5017100;28;20075;-74
2023/08/16 09:18:13;;;;;;;4.82;1.77;;;;;;;;;;5009818;28;20573;-74
2023/08/16 09:20:38;;;;;;;5.57;1.90;;;;;;;;;;5012685;28;20033;-74
2023/08/16 09:23:04;;;;;;;7.53;2.03;;;;;;;;;;5016613;28;20044;-74
2023/08/16 09:25:29;;;;;;;5.07;1.90;;;;;;;;;;5011406;28;20057;-71
2023/08/16 09:27:54;;;;;;;3.70;1.75;;;;;;;;;;5015315;28;20029;-72
2023/08/16 09:30:20;;;;;;;4.38;2.20;;;;;;;;;;5010680;28;20088;-74
2023/08/16 09:32:45;;;;;;;6.72;1.73;;;;;;;;;;5013806;28;20033;-75
2023/08/16 09:35:12;;;;;;;5.13;1.60;;;;;;;;;;5016317;28;20036;-70
2023/08/16 09:37:38;;;;;;;4.05;1.30;;;;;;;;;;5009729;28;20049;-73
2023/08/16 09:40:06;;;;;;;5.30;1.58;;;;;;;;;;5011603;28;20041;-72
2023/08/16 09:42:34;;;;;;;3.72;1.23;;;;;;;;;;4995168;28;20045;-73
2023/08/16 09:45:00;;;;;;;3.47;1.25;;;;;;;;;;5010135;28;20048;-71
2023/08/16 09:47:30;;;;;;;3.83;1.42;;;;;;;;;;4996732;28;20041;-73
2023/08/16 09:49:56;;;;;;;3.13;1.20;;;;;;;;;;5016599;28;20095;-71
2023/08/16 09:52:22;;;;;;;5.63;1.38;;;;;;;;;;5016862;28;20037;-73
2023/08/16 09:54:48;;;;;;;3.28;1.27;;;;;;;;;;5017486;28;20033;-73
2023/08/16 09:57:13;;;;;;;3.58;1.38;;;;;;;;;;4989209;28;20050;-71
2023/08/16 09:59:41;;;;;;;2.40;1.20;;;;;;;;;;4998964;28;20092;-72
2023/08/16 10:02:11;;;;;;;3.20;1.02;;;;;;;;;;5001707;28;20036;-74
2023/08/16 10:04:36;;;;;;;4.85;1.13;;;;;;;;;;5020235;28;20032;-73
2023/08/16 10:07:01;;;;;;;5.25;1.40;;;;;;;;;;5015702;28;20634;-71
2023/08/16 10:09:27;;;;;;;4.80;1.67;;;;;;;;;;5014119;28;20033;-73
2023/08/16 10:11:53;;;;;;;3.20;1.45;;;;;;;;;;5016498;28;20033;-74
2023/08/16 10:14:18;;;;;;;4.50;1.30;;;;;;;;;;5019141;28;20029;-73
2023/08/16 10:16:47;;;;;;;3.80;1.30;;;;;;;;;;5045470;28;20036;-71
2023/08/16 10:19:15;;;;;;;4.55;1.40;;;;;;;;;;5018494;28;20060;-73
2023/08/16 10:21:46;;;;;;;2.53;1.20;;;;;;;;;;5015327;28;20122;-73
2023/08/16 10:24:13;;;;;;;3.13;1.05;;;;;;;;;;5012223;28;22641;-74
2023/08/16 10:26:41;;;;;;;2.63;1.10;;;;;;;;;;5014987;28;20033;-74
2023/08/16 10:29:11;;;;;;;3.35;1.20;;;;;;;;;;5013785;28;20559;-72
2023/08/16 10:31:40;;;;;;;3.45;1.25;;;;;;;;;;4998545;28;20029;-74
2023/08/16 10:34:07;;;;;;;3.83;1.10;;;;;;;;;;4995969;28;20049;-73
2023/08/16 10:36:34;;;;;;;4.07;1.00;;;;;;;;;;5002904;28;20034;-74
2023/08/16 10:39:00;;;;;;;2.67;1.45;;;;;;;;;;4997642;28;20096;-73
2023/08/16 10:41:38;;;;;;;4.13;1.27;;;;;;;;;;4997992;28;20125;-69
2023/08/16 10:44:04;;;;;;;3.58;1.23;;;;;;;;;;5013754;28;20080;-70
2023/08/16 10:46:30;;;;;;;4.03;1.10;;;;;;;;;;5015993;28;20033;-69
2023/08/16 10:48:59;;;;;;;4.65;1.40;;;;;;;;;;5016173;28;20120;-68
2023/08/16 10:51:24;;;;;;;2.80;1.10;;;;;;;;;;5016023;27;20033;-68
2023/08/16 10:53:50;;;;;;;3.85;1.33;;;;;;;;;;5014734;28;20127;-69
2023/08/16 10:56:17;;;;;;;3.15;1.33;;;;;;;;;;5016396;28;20524;-68
2023/08/16 10:58:47;;;;;;;3.58;1.40;;;;;;;;;;5016966;27;20555;-69
2023/08/16 11:01:13;;;;;;;2.53;1.30;;;;;;;;;;5015404;28;20681;-70
2023/08/16 11:03:40;;;;;;;4.32;1.10;;;;;;;;;;5014218;28;20037;-69
2023/08/16 11:06:07;;;;;;;3.78;1.20;;;;;;;;;;5007382;28;20120;-70
2023/08/16 11:08:32;;;;;;;3.30;1.10;;;;;;;;;;5003307;28;20907;-69
2023/08/16 11:10:58;;;;;;;3.20;1.25;;;;;;;;;;5015467;28;20078;-69
2023/08/16 11:13:23;;;;;;;3.42;1.30;;;;;;;;;;5018943;28;20135;-68
2023/08/16 11:15:49;;;;;;;4.10;1.30;;;;;;;;;;5016094;28;20057;-69
2023/08/16 11:18:24;;;;;;;3.28;1.20;;;;;;;;;;5011844;28;20037;-69
2023/08/16 11:20:51;;;;;;;4.53;1.10;;;;;;;;;;5015786;28;20049;-69
2023/08/16 11:23:16;;;;;;;3.10;1.20;;;;;;;;;;5018797;28;20047;-68
2023/08/16 11:25:42;;;;;;;3.58;1.10;;;;;;;;;;5048677;28;20026;-69
2023/08/16 11:28:09;;;;;;;2.22;1.00;;;;;;;;;;5017363;28;20126;-69
2023/08/16 11:30:35;;;;;;;3.72;1.15;;;;;;;;;;5014624;28;20053;-69
2023/08/16 11:33:00;;;;;;;3.38;1.17;;;;;;;;;;5016098;28;20037;-68
2023/08/16 11:35:28;;;;;;;3.53;1.20;;;;;;;;;;4997519;28;20048;-69
2023/08/16 11:37:56;;;;;;;2.95;0.90;;;;;;;;;;4996486;28;20053;-68
2023/08/16 11:40:24;;;;;;;3.65;1.27;;;;;;;;;;4995895;28;20060;-68
2023/08/16 11:42:52;;;;;;;2.90;1.00;;;;;;;;;;4995288;28;20581;-68
2023/08/16 11:45:21;;;;;;;1.95;0.80;;;;;;;;;;4997044;28;20033;-68
2023/08/16 11:47:53;;;;;;;3.65;1.10;;;;;;;;;;4995224;28;20115;-69
2023/08/16 11:50:19;;;;;;;3.60;1.10;;;;;;;;;;4997200;28;20044;-68
2023/08/16 11:52:55;;;;;;;4.88;1.35;;;;;;;;;;4997401;28;20037;-67
2023/08/16 11:55:20;;;;;;;5.55;1.30;;;;;;;;;;4996747;28;20079;-69
2023/08/16 11:57:46;;;;;;;4.20;1.17;;;;;;;;;;4995817;28;20917;-68
2023/08/16 12:00:14;;;;;;;2.65;1.00;;;;;;;;;;4994963;28;20037;-68
2023/08/16 12:02:41;;;;;;;4.03;0.88;;;;;;;;;;4995108;28;20033;-67
2023/08/16 12:05:10;;;;;;;3.83;1.10;;;;;;;;;;4994115;28;20030;-68
2023/08/16 12:07:42;;;;;;;4.85;1.30;;;;;;;;;;5014442;28;20098;-68
2023/08/16 12:10:07;;;;;;;3.10;1.13;;;;;;;;;;4995480;28;20145;-70
2023/08/16 12:12:33;;;;;;;4.32;1.50;;;;;;;;;;4993274;28;20048;-69
2023/08/16 12:15:00;;;;;;;4.10;1.30;;;;;;;;;;4994438;28;20043;-68
2023/08/16 12:17:26;;;;;;;3.60;1.25;;;;;;;;;;4995584;28;20568;-70
2023/08/16 12:19:51;;;;;;;2.97;1.25;;;;;;;;;;4993672;28;20026;-69
2023/08/16 12:22:16;;;;;;;3.58;1.48;;;;;;;;;;4991076;28;22434;-69
2023/08/16 12:24:42;;;;;;;5.43;1.20;;;;;;;;;;4995315;28;20038;-69
2023/08/16 12:27:07;;;;;;;3.08;1.25;;;;;;;;;;4997207;28;20124;-69
2023/08/16 12:29:33;;;;;;;4.03;1.17;;;;;;;;;;4996314;28;20033;-69
2023/08/16 12:31:58;;;;;;;5.07;1.20;;;;;;;;;;4984375;28;20052;-70
2023/08/16 12:34:24;;;;;;;3.65;1.23;;;;;;;;;;4995313;28;20551;-68
2023/08/16 12:36:49;;;;;;;3.75;1.33;;;;;;;;;;4995514;28;20113;-69
2023/08/16 12:39:14;;;;;;;3.42;1.25;;;;;;;;;;4993471;28;20073;-71
2023/08/16 12:41:39;;;;;;;4.43;1.20;;;;;;;;;;4993910;28;20040;-74
2023/08/16 12:44:05;;;;;;;2.83;1.20;;;;;;;;;;4997021;28;20113;-72
2023/08/16 12:46:31;;;;;;;3.75;1.40;;;;;;;;;;4994432;28;20042;-71
2023/08/16 12:48:56;;;;;;;3.63;1.50;;;;;;;;;;4994442;28;20034;-71
2023/08/16 12:51:21;;;;;;;3.88;1.02;;;;;;;;;;4998037;28;20062;-69
2023/08/16 12:53:51;;;;;;;3.00;1.30;;;;;;;;;;4994409;28;20223;-69
2023/08/16 12:56:18;;;;;;;2.72;1.17;;;;;;;;;;4994155;28;20025;-69
2023/08/16 12:58:44;;;;;;;2.65;1.10;;;;;;;;;;4992753;28;20096;-69
2023/08/16 13:01:09;;;;;;;2.25;1.00;;;;;;;;;;4998791;28;20103;-69
2023/08/16 13:03:34;;;;;;;3.28;1.10;;;;;;;;;;5016373;28;20041;-68
2023/08/16 13:06:00;;;;;;;4.55;1.38;;;;;;;;;;5001185;28;20489;-68
2023/08/16 13:08:25;;;;;;;4.53;1.25;;;;;;;;;;5015054;28;21382;-68
2023/08/16 13:10:50;;;;;;;2.67;1.30;;;;;;;;;;5020060;28;20033;-68
2023/08/16 13:13:16;;;;;;;3.83;1.30;;;;;;;;;;5015661;28;20029;-69
2023/08/16 13:15:43;;;;;;;5.07;1.83;;;;;;;;;;5015575;28;20032;-68
2023/08/16 13:18:11;;;;;;;3.38;1.30;;;;;;;;;;5021796;28;20463;-69
2023/08/16 13:20:37;;;;;;;2.72;1.48;;;;;;;;;;5021389;28;20058;-68
2023/08/16 13:23:02;;;;;;;4.25;1.38;;;;;;;;;;5019567;28;20128;-68
2023/08/16 13:25:29;;;;;;;3.15;1.40;;;;;;;;;;5051821;28;20061;-69
2023/08/16 13:27:55;;;;;;;3.90;1.52;;;;;;;;;;5024886;28;20683;-69
2023/08/16 13:30:22;;;;;;;3.60;1.40;;;;;;;;;;4999709;28;20037;-69
2023/08/16 13:32:48;;;;;;;3.05;1.40;;;;;;;;;;4998857;28;20446;-69
2023/08/16 13:35:13;;;;;;;3.85;1.40;;;;;;;;;;4999827;28;20136;-69
2023/08/16 13:37:42;;;;;;;2.97;1.33;;;;;;;;;;5002854;28;20064;-68
2023/08/16 13:40:10;;;;;;;2.97;1.55;;;;;;;;;;4989462;28;20026;-69
2023/08/16 13:42:35;;;;;;;3.58;1.60;;;;;;;;;;4998601;28;20042;-69
2023/08/16 13:45:00;;;;;;;3.95;1.50;;;;;;;;;;4997504;28;20038;-70
2023/08/16 13:47:28;;;;;;;3.63;1.58;;;;;;;;;;5001973;28;20038;-70
2023/08/16 13:49:53;;;;;;;4.03;1.52;;;;;;;;;;4992829;28;20068;-70
2023/08/16 13:52:21;;;;;;;4.35;1.70;;;;;;;;;;4996490;28;20657;-71
2023/08/16 13:54:48;;;;;;;4.13;1.73;;;;;;;;;;4997143;28;20038;-67
2023/08/16 13:57:16;;;;;;;5.22;1.85;;;;;;;;;;4995368;28;20041;-70
2023/08/16 13:59:44;;;;;;;4.43;1.60;;;;;;;;;;4996102;28;20147;-70
2023/08/16 14:02:09;;;;;;;4.53;1.45;;;;;;;;;;4995816;28;20080;-70
2023/08/16 14:04:35;;;;;;;5.25;1.52;;;;;;;;;;4996901;28;20029;-70
2023/08/16 14:07:03;;;;;;;3.88;1.40;;;;;;;;;;4994348;28;20076;-70
2023/08/16 14:09:28;;;;;;;3.75;1.33;;;;;;;;;;4999900;28;20028;-70
2023/08/16 14:11:53;;;;;;;2.78;1.17;;;;;;;;;;4996899;28;20502;-70
2023/08/16 14:14:19;;;;;;;5.95;1.42;;;;;;;;;;4997644;28;20538;-70
2023/08/16 14:16:44;;;;;;;2.67;1.33;;;;;;;;;;4997257;28;20048;-70
2023/08/16 14:19:09;;;;;;;3.40;1.40;;;;;;;;;;4997735;28;20132;-71
2023/08/16 14:21:36;;;;;;;4.35;1.70;;;;;;;;;;5000019;28;20041;-71
2023/08/16 14:24:02;;;;;;;3.78;1.60;;;;;;;;;;4997379;28;20037;-70
2023/08/16 14:26:27;;;;;;;3.75;1.20;;;;;;;;;;5000930;28;20053;-70
2023/08/16 14:28:52;;;;;;;4.03;1.30;;;;;;;;;;4996619;28;20388;-71
2023/08/16 14:31:18;;;;;;;4.75;1.50;;;;;;;;;;5000272;28;20040;-70